sensor_id;sensor_type;location;lat;lon;timestamp;pressure;altitude;pressure_sealevel;temperature;humidity
9462;BME280;4769;42.660;23.262;2022-12-31T00:01:07;94973.25;;;7.98;93.01
9462;BME280;4769;42.660;23.262;2022-12-31T00:03:35;94973.25;;;8.11;92.70
9462;BME280;4769;42.660;23.262;2022-12-31T00:06:11;94969.81;;;8.24;91.85
9462;BME280;4769;42.660;23.262;2022-12-31T00:08:38;94971.63;;;8.36;91.15
9462;BME280;4769;42.660;23.262;2022-12-31T00:11:05;94965.31;;;8.44;91.03
9462;BME280;4769;42.660;23.262;2022-12-31T00:13:33;94967.94;;;8.50;90.93
9462;BME280;4769;42.660;23.262;2022-12-31T00:16:05;94971.13;;;8.59;90.83
9462;BME280;4769;42.660;23.262;2022-12-31T00:18:32;94979.81;;;8.66;90.23
9462;BME280;4769;42.660;23.262;2022-12-31T00:20:58;94973.41;;;8.42;89.90
9462;BME280;4769;42.660;23.262;2022-12-31T00:23:26;94977.25;;;8.40;90.75
9462;BME280;4769;42.660;23.262;2022-12-31T00:25:53;94981.53;;;8.41;90.79
9462;BME280;4769;42.660;23.262;2022-12-31T00:28:19;94979.09;;;8.33;91.44
9462;BME280;4769;42.660;23.262;2022-12-31T00:30:47;94986.56;;;8.42;91.40
9462;BME280;4769;42.660;23.262;2022-12-31T00:33:14;94988.97;;;8.44;90.47
9462;BME280;4769;42.660;23.262;2022-12-31T00:35:41;94982.69;;;8.51;89.95
9462;BME280;4769;42.660;23.262;2022-12-31T00:38:07;94992.00;;;8.47;89.64
9462;BME280;4769;42.660;23.262;2022-12-31T00:40:34;94996.84;;;8.57;89.82
9462;BME280;4769;42.660;23.262;2022-12-31T00:43:01;94993.81;;;8.60;89.52
9462;BME280;4769;42.660;23.262;2022-12-31T00:45:27;94988.94;;;8.63;89.59
9462;BME280;4769;42.660;23.262;2022-12-31T00:47:55;94999.06;;;8.66;89.58
9462;BME280;4769;42.660;23.262;2022-12-31T00:50:22;94998.41;;;8.77;88.86
9462;BME280;4769;42.660;23.262;2022-12-31T00:52:49;94998.19;;;8.79;89.19
9462;BME280;4769;42.660;23.262;2022-12-31T00:55:15;95003.28;;;8.67;89.45
9462;BME280;4769;42.660;23.262;2022-12-31T00:57:42;94992.34;;;8.70;88.39
9462;BME280;4769;42.660;23.262;2022-12-31T01:00:10;94997.66;;;8.64;89.65
9462;BME280;4769;42.660;23.262;2022-12-31T01:02:37;95007.94;;;8.65;90.42
9462;BME280;4769;42.660;23.262;2022-12-31T01:05:06;95002.72;;;8.52;90.17
9462;BME280;4769;42.660;23.262;2022-12-31T01:07:33;95007.97;;;8.52;90.90
9462;BME280;4769;42.660;23.262;2022-12-31T01:09:59;95014.22;;;8.64;90.30
9462;BME280;4769;42.660;23.262;2022-12-31T01:12:26;95011.97;;;8.68;90.34
9462;BME280;4769;42.660;23.262;2022-12-31T01:14:53;95016.63;;;8.66;90.83
9462;BME280;4769;42.660;23.262;2022-12-31T01:17:19;95023.94;;;8.57;91.33
9462;BME280;4769;42.660;23.262;2022-12-31T01:19:46;95010.63;;;8.46;91.31
9462;BME280;4769;42.660;23.262;2022-12-31T01:22:14;95017.91;;;8.31;93.59
9462;BME280;4769;42.660;23.262;2022-12-31T01:24:41;95027.81;;;8.29;93.37
9462;BME280;4769;42.660;23.262;2022-12-31T01:27:07;95014.88;;;8.34;93.64
9462;BME280;4769;42.660;23.262;2022-12-31T01:29:34;95018.72;;;8.38;92.76
9462;BME280;4769;42.660;23.262;2022-12-31T01:32:01;95023.94;;;8.18;92.95
9462;BME280;4769;42.660;23.262;2022-12-31T01:34:27;95020.34;;;8.06;94.32
9462;BME280;4769;42.660;23.262;2022-12-31T01:36:54;95027.19;;;8.07;94.40
9462;BME280;4769;42.660;23.262;2022-12-31T01:39:22;95033.03;;;8.03;94.53
9462;BME280;4769;42.660;23.262;2022-12-31T01:41:49;95022.97;;;8.00;94.21
9462;BME280;4769;42.660;23.262;2022-12-31T01:44:48;95028.81;;;7.82;95.30
9462;BME280;4769;42.660;23.262;2022-12-31T01:47:18;95034.84;;;7.70;96.59
9462;BME280;4769;42.660;23.262;2022-12-31T01:49:48;95039.28;;;7.56;96.58
9462;BME280;4769;42.660;23.262;2022-12-31T01:52:20;95037.69;;;7.62;96.23
9462;BME280;4769;42.660;23.262;2022-12-31T01:54:51;95031.59;;;7.55;97.39
9462;BME280;4769;42.660;23.262;2022-12-31T01:57:20;95040.88;;;7.51;97.80
9462;BME280;4769;42.660;23.262;2022-12-31T01:59:48;95042.28;;;7.47;98.11
9462;BME280;4769;42.660;23.262;2022-12-31T02:02:15;95043.25;;;7.39;98.04
9462;BME280;4769;42.660;23.262;2022-12-31T02:04:42;95036.44;;;7.51;98.11
9462;BME280;4769;42.660;23.262;2022-12-31T02:07:10;95048.75;;;7.51;97.33
9462;BME280;4769;42.660;23.262;2022-12-31T02:09:39;95040.28;;;7.49;97.64
9462;BME280;4769;42.660;23.262;2022-12-31T02:12:08;95048.09;;;7.29;97.80
9462;BME280;4769;42.660;23.262;2022-12-31T02:14:39;95055.47;;;7.06;98.62
9462;BME280;4769;42.660;23.262;2022-12-31T02:17:14;95048.25;;;7.15;99.22
9462;BME280;4769;42.660;23.262;2022-12-31T02:20:02;95053.41;;;6.95;99.98
9462;BME280;4769;42.660;23.262;2022-12-31T02:22:45;95060.47;;;6.95;100.00
9462;BME280;4769;42.660;23.262;2022-12-31T02:25:27;95066.78;;;7.07;100.00
9462;BME280;4769;42.660;23.262;2022-12-31T02:28:15;95051.66;;;7.15;99.60
9462;BME280;4769;42.660;23.262;2022-12-31T02:30:49;95055.94;;;7.23;98.91
9462;BME280;4769;42.660;23.262;2022-12-31T02:33:21;95057.78;;;7.35;98.01
9462;BME280;4769;42.660;23.262;2022-12-31T02:35:53;95056.81;;;7.36;97.31
9462;BME280;4769;42.660;23.262;2022-12-31T02:38:23;95063.03;;;7.35;96.93
9462;BME280;4769;42.660;23.262;2022-12-31T02:40:52;95063.69;;;7.44;96.60
9462;BME280;4769;42.660;23.262;2022-12-31T02:43:19;95065.13;;;7.53;95.66
9462;BME280;4769;42.660;23.262;2022-12-31T02:45:49;95070.13;;;7.54;95.53
9462;BME280;4769;42.660;23.262;2022-12-31T02:48:35;95075.38;;;7.41;96.00
9462;BME280;4769;42.660;23.262;2022-12-31T02:51:18;95062.91;;;7.56;96.40
9462;BME280;4769;42.660;23.262;2022-12-31T02:54:03;95066.97;;;7.65;95.75
9462;BME280;4769;42.660;23.262;2022-12-31T02:56:39;95066.97;;;7.65;94.76
9462;BME280;4769;42.660;23.262;2022-12-31T02:59:11;95073.00;;;7.66;94.99
9462;BME280;4769;42.660;23.262;2022-12-31T03:02:03;95062.50;;;7.66;94.58
9462;BME280;4769;42.660;23.262;2022-12-31T03:04:43;95064.53;;;7.64;94.26
9462;BME280;4769;42.660;23.262;2022-12-31T03:07:13;95062.72;;;7.64;94.60
9462;BME280;4769;42.660;23.262;2022-12-31T03:09:40;95055.81;;;7.63;94.42
9462;BME280;4769;42.660;23.262;2022-12-31T03:12:09;95059.69;;;7.74;94.20
9462;BME280;4769;42.660;23.262;2022-12-31T03:14:53;95055.84;;;7.76;93.59
9462;BME280;4769;42.660;23.262;2022-12-31T03:17:22;95045.56;;;7.75;93.57
9462;BME280;4769;42.660;23.262;2022-12-31T03:19:49;95049.19;;;7.80;93.71
9462;BME280;4769;42.660;23.262;2022-12-31T03:22:36;95050.03;;;7.81;93.06
9462;BME280;4769;42.660;23.262;2022-12-31T03:25:06;95052.25;;;7.71;93.55
9462;BME280;4769;42.660;23.262;2022-12-31T03:27:51;95051.00;;;7.86;92.93
9462;BME280;4769;42.660;23.262;2022-12-31T03:30:19;95050.41;;;7.84;92.58
9462;BME280;4769;42.660;23.262;2022-12-31T03:32:48;95050.22;;;7.79;92.97
9462;BME280;4769;42.660;23.262;2022-12-31T03:35:16;95052.84;;;7.79;93.62
9462;BME280;4769;42.660;23.262;2022-12-31T03:37:44;95052.41;;;7.63;94.08
9462;BME280;4769;42.660;23.262;2022-12-31T03:40:13;95046.75;;;7.72;93.86
9462;BME280;4769;42.660;23.262;2022-12-31T03:42:40;95048.59;;;7.65;93.49
9462;BME280;4769;42.660;23.262;2022-12-31T03:45:09;95053.00;;;7.65;94.11
9462;BME280;4769;42.660;23.262;2022-12-31T03:47:36;95062.09;;;7.69;93.51
9462;BME280;4769;42.660;23.262;2022-12-31T03:50:06;95055.81;;;7.63;93.66
9462;BME280;4769;42.660;23.262;2022-12-31T03:52:33;95065.75;;;7.68;94.23
9462;BME280;4769;42.660;23.262;2022-12-31T03:55:00;95068.59;;;7.73;93.14
9462;BME280;4769;42.660;23.262;2022-12-31T03:57:27;95065.94;;;7.66;93.58
9462;BME280;4769;42.660;23.262;2022-12-31T03:59:54;95065.72;;;7.55;93.73
9462;BME280;4769;42.660;23.262;2022-12-31T04:02:21;95069.53;;;7.46;94.76
9462;BME280;4769;42.660;23.262;2022-12-31T04:04:48;95062.50;;;7.53;94.27
9462;BME280;4769;42.660;23.262;2022-12-31T04:07:16;95074.22;;;7.57;94.09
9462;BME280;4769;42.660;23.262;2022-12-31T04:09:43;95069.72;;;7.44;94.51
9462;BME280;4769;42.660;23.262;2022-12-31T04:12:09;95075.19;;;7.43;94.90
9462;BME280;4769;42.660;23.262;2022-12-31T04:14:36;95083.81;;;7.30;94.71
9462;BME280;4769;42.660;23.262;2022-12-31T04:17:03;95072.72;;;7.28;94.46
9462;BME280;4769;42.660;23.262;2022-12-31T04:19:29;95082.38;;;7.28;94.89
9462;BME280;4769;42.660;23.262;2022-12-31T04:21:56;95087.19;;;7.18;95.68
9462;BME280;4769;42.660;23.262;2022-12-31T04:24:24;95086.19;;;7.19;95.99
9462;BME280;4769;42.660;23.262;2022-12-31T04:26:51;95081.34;;;7.16;95.18
9462;BME280;4769;42.660;23.262;2022-12-31T04:29:18;95087.38;;;7.16;95.32
9462;BME280;4769;42.660;23.262;2022-12-31T04:31:44;95089.75;;;7.05;94.88
9462;BME280;4769;42.660;23.262;2022-12-31T04:34:11;95094.34;;;6.96;96.29
9462;BME280;4769;42.660;23.262;2022-12-31T04:36:38;95092.94;;;6.94;96.50
9462;BME280;4769;42.660;23.262;2022-12-31T04:39:05;95103.16;;;6.82;96.58
9462;BME280;4769;42.660;23.262;2022-12-31T04:41:33;95092.63;;;6.76;97.79
9462;BME280;4769;42.660;23.262;2022-12-31T04:43:59;95102.50;;;6.74;98.37
9462;BME280;4769;42.660;23.262;2022-12-31T04:46:29;95103.50;;;6.73;97.99
9462;BME280;4769;42.660;23.262;2022-12-31T04:48:56;95108.34;;;6.76;97.97
9462;BME280;4769;42.660;23.262;2022-12-31T04:51:24;95111.97;;;6.75;98.21
9462;BME280;4769;42.660;23.262;2022-12-31T04:53:52;95099.94;;;6.80;98.39
9462;BME280;4769;42.660;23.262;2022-12-31T04:56:19;95108.03;;;6.85;97.92
9462;BME280;4769;42.660;23.262;2022-12-31T04:58:48;95106.59;;;6.83;96.91
9462;BME280;4769;42.660;23.262;2022-12-31T05:01:15;95107.56;;;6.75;96.58
9462;BME280;4769;42.660;23.262;2022-12-31T05:03:42;95116.19;;;6.69;96.44
9462;BME280;4769;42.660;23.262;2022-12-31T05:06:13;95111.94;;;6.68;97.32
9462;BME280;4769;42.660;23.262;2022-12-31T05:08:40;95114.56;;;6.68;96.78
9462;BME280;4769;42.660;23.262;2022-12-31T05:11:07;95118.50;;;6.58;98.54
9462;BME280;4769;42.660;23.262;2022-12-31T05:13:34;95125.22;;;6.67;98.86
9462;BME280;4769;42.660;23.262;2022-12-31T05:16:03;95124.22;;;6.68;98.69
9462;BME280;4769;42.660;23.262;2022-12-31T05:18:31;95130.88;;;6.70;98.99
9462;BME280;4769;42.660;23.262;2022-12-31T05:20:58;95136.56;;;6.74;98.81
9462;BME280;4769;42.660;23.262;2022-12-31T05:23:25;95137.97;;;6.70;98.08
9462;BME280;4769;42.660;23.262;2022-12-31T05:25:52;95139.94;;;6.68;98.23
9462;BME280;4769;42.660;23.262;2022-12-31T05:28:19;95140.75;;;6.68;98.24
9462;BME280;4769;42.660;23.262;2022-12-31T05:30:47;95146.59;;;6.64;98.65
9462;BME280;4769;42.660;23.262;2022-12-31T05:33:17;95140.53;;;6.63;98.92
9462;BME280;4769;42.660;23.262;2022-12-31T05:35:44;95149.00;;;6.65;99.14
9462;BME280;4769;42.660;23.262;2022-12-31T05:38:11;95140.16;;;6.66;99.09
9462;BME280;4769;42.660;23.262;2022-12-31T05:40:38;95147.06;;;6.74;99.26
9462;BME280;4769;42.660;23.262;2022-12-31T05:43:04;95144.03;;;6.77;99.13
9462;BME280;4769;42.660;23.262;2022-12-31T05:45:31;95151.13;;;6.76;99.25
9462;BME280;4769;42.660;23.262;2022-12-31T05:47:58;95149.28;;;6.77;98.45
9462;BME280;4769;42.660;23.262;2022-12-31T05:50:26;95151.06;;;6.70;98.27
9462;BME280;4769;42.660;23.262;2022-12-31T05:52:52;95154.28;;;6.72;98.72
9462;BME280;4769;42.660;23.262;2022-12-31T05:55:19;95149.81;;;6.66;99.22
9462;BME280;4769;42.660;23.262;2022-12-31T05:57:46;95147.00;;;6.67;99.56
9462;BME280;4769;42.660;23.262;2022-12-31T06:00:13;95154.81;;;6.61;98.90
9462;BME280;4769;42.660;23.262;2022-12-31T06:02:40;95156.25;;;6.63;99.78
9462;BME280;4769;42.660;23.262;2022-12-31T06:05:07;95156.44;;;6.62;99.41
9462;BME280;4769;42.660;23.262;2022-12-31T06:07:36;95162.06;;;6.59;99.50
9462;BME280;4769;42.660;23.262;2022-12-31T06:10:03;95161.50;;;6.63;99.14
9462;BME280;4769;42.660;23.262;2022-12-31T06:12:30;95164.31;;;6.62;98.57
9462;BME280;4769;42.660;23.262;2022-12-31T06:14:56;95164.66;;;6.59;98.74
9462;BME280;4769;42.660;23.262;2022-12-31T06:17:23;95173.72;;;6.56;99.00
9462;BME280;4769;42.660;23.262;2022-12-31T06:19:50;95175.91;;;6.53;99.82
9462;BME280;4769;42.660;23.262;2022-12-31T06:22:17;95177.59;;;6.60;99.95
9462;BME280;4769;42.660;23.262;2022-12-31T06:24:45;95168.16;;;6.66;99.46
9462;BME280;4769;42.660;23.262;2022-12-31T06:27:11;95175.50;;;6.77;99.83
9462;BME280;4769;42.660;23.262;2022-12-31T06:29:38;95181.31;;;6.72;99.39
9462;BME280;4769;42.660;23.262;2022-12-31T06:32:05;95186.22;;;6.82;99.05
9462;BME280;4769;42.660;23.262;2022-12-31T06:34:32;95180.81;;;6.90;99.31
9462;BME280;4769;42.660;23.262;2022-12-31T06:36:59;95199.00;;;6.91;98.55
9462;BME280;4769;42.660;23.262;2022-12-31T06:39:25;95189.94;;;6.94;98.84
9462;BME280;4769;42.660;23.262;2022-12-31T06:41:53;95197.03;;;7.00;97.84
9462;BME280;4769;42.660;23.262;2022-12-31T06:44:20;95209.66;;;6.90;98.18
9462;BME280;4769;42.660;23.262;2022-12-31T06:46:47;95208.72;;;6.97;97.46
9462;BME280;4769;42.660;23.262;2022-12-31T06:49:15;95209.38;;;7.06;97.22
9462;BME280;4769;42.660;23.262;2022-12-31T06:51:42;95216.66;;;7.10;96.90
9462;BME280;4769;42.660;23.262;2022-12-31T06:54:10;95213.06;;;7.18;96.92
9462;BME280;4769;42.660;23.262;2022-12-31T06:56:38;95220.63;;;7.27;96.42
9462;BME280;4769;42.660;23.262;2022-12-31T06:59:16;95220.84;;;7.32;96.56
9462;BME280;4769;42.660;23.262;2022-12-31T07:01:51;95223.91;;;7.42;96.32
9462;BME280;4769;42.660;23.262;2022-12-31T07:07:25;95228.00;;;7.51;95.49
9462;BME280;4769;42.660;23.262;2022-12-31T07:10:00;95221.78;;;7.59;95.89
9462;BME280;4769;42.660;23.262;2022-12-31T07:12:38;95223.44;;;7.66;95.37
9462;BME280;4769;42.660;23.262;2022-12-31T07:15:15;95234.38;;;7.76;95.76
9462;BME280;4769;42.660;23.262;2022-12-31T07:17:51;95230.75;;;7.84;95.08
9462;BME280;4769;42.660;23.262;2022-12-31T07:20:23;95238.06;;;7.88;95.09
9462;BME280;4769;42.660;23.262;2022-12-31T07:22:50;95240.53;;;7.96;94.52
9462;BME280;4769;42.660;23.262;2022-12-31T07:25:18;95242.16;;;7.97;94.50
9462;BME280;4769;42.660;23.262;2022-12-31T07:28:01;95238.34;;;8.06;94.22
9462;BME280;4769;42.660;23.262;2022-12-31T07:30:39;95242.19;;;8.10;94.30
9462;BME280;4769;42.660;23.262;2022-12-31T07:33:20;95247.03;;;8.13;93.52
9462;BME280;4769;42.660;23.262;2022-12-31T07:35:58;95244.06;;;8.23;93.36
9462;BME280;4769;42.660;23.262;2022-12-31T07:38:35;95240.25;;;8.25;93.08
9462;BME280;4769;42.660;23.262;2022-12-31T07:41:09;95246.09;;;8.34;92.53
9462;BME280;4769;42.660;23.262;2022-12-31T07:43:46;95251.19;;;8.42;92.54
9462;BME280;4769;42.660;23.262;2022-12-31T07:46:25;95250.78;;;8.45;91.76
9462;BME280;4769;42.660;23.262;2022-12-31T07:48:52;95258.44;;;8.27;92.34
9462;BME280;4769;42.660;23.262;2022-12-31T07:51:20;95260.03;;;8.21;92.49
9462;BME280;4769;42.660;23.262;2022-12-31T07:53:47;95268.19;;;8.46;92.03
9462;BME280;4769;42.660;23.262;2022-12-31T07:56:13;95265.78;;;8.57;91.26
9462;BME280;4769;42.660;23.262;2022-12-31T07:58:55;95263.59;;;8.80;93.71
9462;BME280;4769;42.660;23.262;2022-12-31T08:01:33;95266.81;;;8.89;91.06
9462;BME280;4769;42.660;23.262;2022-12-31T08:04:06;95267.63;;;9.02;90.03
9462;BME280;4769;42.660;23.262;2022-12-31T08:06:39;95269.03;;;9.05;89.04
9462;BME280;4769;42.660;23.262;2022-12-31T08:09:23;95266.59;;;9.42;87.10
9462;BME280;4769;42.660;23.262;2022-12-31T08:11:55;95260.50;;;9.29;86.53
9462;BME280;4769;42.660;23.262;2022-12-31T08:14:22;95259.09;;;9.33;86.56
9462;BME280;4769;42.660;23.262;2022-12-31T08:16:51;95255.88;;;9.37;86.46
9462;BME280;4769;42.660;23.262;2022-12-31T08:19:22;95259.47;;;9.49;86.10
9462;BME280;4769;42.660;23.262;2022-12-31T08:22:02;95251.16;;;9.59;84.90
9462;BME280;4769;42.660;23.262;2022-12-31T08:24:39;95259.00;;;9.78;84.86
9462;BME280;4769;42.660;23.262;2022-12-31T08:27:19;95261.00;;;9.83;84.21
9462;BME280;4769;42.660;23.262;2022-12-31T08:29:56;95263.81;;;9.88;83.52
9462;BME280;4769;42.660;23.262;2022-12-31T08:32:31;95261.63;;;9.85;83.51
9462;BME280;4769;42.660;23.262;2022-12-31T08:35:07;95260.78;;;9.97;83.47
9462;BME280;4769;42.660;23.262;2022-12-31T08:37:41;95261.16;;;10.07;82.98
9462;BME280;4769;42.660;23.262;2022-12-31T08:40:18;95267.16;;;10.21;81.47
9462;BME280;4769;42.660;23.262;2022-12-31T08:43:09;95269.19;;;10.25;81.44
9462;BME280;4769;42.660;23.262;2022-12-31T08:45:45;95262.63;;;10.41;81.22
9462;BME280;4769;42.660;23.262;2022-12-31T08:48:20;95257.19;;;10.67;80.49
9462;BME280;4769;42.660;23.262;2022-12-31T08:50:51;95253.34;;;10.94;79.98
9462;BME280;4769;42.660;23.262;2022-12-31T08:53:18;95254.91;;;11.01;78.78
9462;BME280;4769;42.660;23.262;2022-12-31T08:55:46;95258.31;;;11.08;77.90
9462;BME280;4769;42.660;23.262;2022-12-31T08:58:25;95258.84;;;11.17;77.58
9462;BME280;4769;42.660;23.262;2022-12-31T09:00:57;95255.50;;;11.28;77.73
9462;BME280;4769;42.660;23.262;2022-12-31T09:03:35;95257.00;;;11.42;76.96
9462;BME280;4769;42.660;23.262;2022-12-31T09:06:14;95252.16;;;11.57;76.33
9462;BME280;4769;42.660;23.262;2022-12-31T09:08:50;95250.13;;;11.59;75.39
9462;BME280;4769;42.660;23.262;2022-12-31T09:11:24;95245.25;;;11.80;75.49
9462;BME280;4769;42.660;23.262;2022-12-31T09:14:07;95247.75;;;11.75;74.33
9462;BME280;4769;42.660;23.262;2022-12-31T09:16:45;95243.84;;;11.96;74.25
9462;BME280;4769;42.660;23.262;2022-12-31T09:19:15;95244.13;;;12.24;73.32
9462;BME280;4769;42.660;23.262;2022-12-31T09:21:42;95248.25;;;12.02;73.45
9462;BME280;4769;42.660;23.262;2022-12-31T09:24:11;95238.94;;;11.99;73.36
9462;BME280;4769;42.660;23.262;2022-12-31T09:26:47;95233.06;;;12.15;73.31
9462;BME280;4769;42.660;23.262;2022-12-31T09:29:29;95238.97;;;12.29;72.75
9462;BME280;4769;42.660;23.262;2022-12-31T09:32:03;95226.97;;;12.44;72.07
9462;BME280;4769;42.660;23.262;2022-12-31T09:34:42;95231.63;;;12.60;71.55
9462;BME280;4769;42.660;23.262;2022-12-31T09:37:14;95225.41;;;12.55;70.41
9462;BME280;4769;42.660;23.262;2022-12-31T09:39:43;95219.06;;;12.56;70.56
9462;BME280;4769;42.660;23.262;2022-12-31T09:42:46;95210.03;;;12.75;70.14
9462;BME280;4769;42.660;23.262;2022-12-31T09:51:29;95189.19;;;13.19;68.88
9462;BME280;4769;42.660;23.262;2022-12-31T09:54:12;95187.47;;;13.25;67.68
9462;BME280;4769;42.660;23.262;2022-12-31T09:56:47;95185.16;;;13.28;67.47
9462;BME280;4769;42.660;23.262;2022-12-31T09:59:22;95179.84;;;13.40;67.47
9462;BME280;4769;42.660;23.262;2022-12-31T10:01:56;95187.78;;;13.63;66.53
9462;BME280;4769;42.660;23.262;2022-12-31T10:04:50;95191.22;;;13.63;66.17
9462;BME280;4769;42.660;23.262;2022-12-31T10:07:30;95187.28;;;13.77;65.91
9462;BME280;4769;42.660;23.262;2022-12-31T10:10:06;95182.78;;;13.78;65.75
9462;BME280;4769;42.660;23.262;2022-12-31T10:16:00;95180.53;;;13.98;64.52
9462;BME280;4769;42.660;23.262;2022-12-31T10:18:44;95174.41;;;14.21;64.14
9462;BME280;4769;42.660;23.262;2022-12-31T10:21:28;95172.59;;;14.38;63.46
9462;BME280;4769;42.660;23.262;2022-12-31T10:24:23;95166.19;;;14.50;62.98
9462;BME280;4769;42.660;23.262;2022-12-31T10:27:13;95153.66;;;14.62;62.30
9462;BME280;4769;42.660;23.262;2022-12-31T10:29:46;95152.19;;;14.55;62.14
9462;BME280;4769;42.660;23.262;2022-12-31T10:32:19;95149.50;;;14.66;62.14
9462;BME280;4769;42.660;23.262;2022-12-31T10:34:54;95146.09;;;14.87;61.43
9462;BME280;4769;42.660;23.262;2022-12-31T10:37:28;95159.63;;;15.19;60.57
9462;BME280;4769;42.660;23.262;2022-12-31T10:40:12;95148.50;;;15.38;59.72
9462;BME280;4769;42.660;23.262;2022-12-31T10:43:03;95151.72;;;15.57;58.69
9462;BME280;4769;42.660;23.262;2022-12-31T10:46:01;95148.53;;;15.60;57.81
9462;BME280;4769;42.660;23.262;2022-12-31T10:58:00;95142.09;;;15.72;56.90
9462;BME280;4769;42.660;23.262;2022-12-31T11:00:37;95148.69;;;16.13;56.37
9462;BME280;4769;42.660;23.262;2022-12-31T11:06:46;95142.50;;;16.55;54.60
9462;BME280;4769;42.660;23.262;2022-12-31T11:09:39;95138.00;;;16.56;53.93
9462;BME280;4769;42.660;23.262;2022-12-31T11:12:23;95133.16;;;16.79;53.49
9462;BME280;4769;42.660;23.262;2022-12-31T11:15:24;95138.53;;;17.21;52.35
9462;BME280;4769;42.660;23.262;2022-12-31T11:18:05;95130.53;;;17.62;51.19
9462;BME280;4769;42.660;23.262;2022-12-31T11:20:56;95117.34;;;17.82;50.16
9462;BME280;4769;42.660;23.262;2022-12-31T11:23:36;95121.56;;;17.73;49.98
9462;BME280;4769;42.660;23.262;2022-12-31T11:26:13;95116.78;;;17.85;49.83
9462;BME280;4769;42.660;23.262;2022-12-31T11:28:52;95119.97;;;17.77;49.90
9462;BME280;4769;42.660;23.262;2022-12-31T11:31:31;95120.69;;;17.63;50.18
9462;BME280;4769;42.660;23.262;2022-12-31T11:34:14;95117.25;;;17.67;49.80
9462;BME280;4769;42.660;23.262;2022-12-31T11:36:48;95115.69;;;17.76;49.53
9462;BME280;4769;42.660;23.262;2022-12-31T11:39:41;95112.22;;;17.76;48.73
9462;BME280;4769;42.660;23.262;2022-12-31T11:42:18;95110.50;;;18.16;48.36
9462;BME280;4769;42.660;23.262;2022-12-31T11:44:50;95101.25;;;18.44;47.80
9462;BME280;4769;42.660;23.262;2022-12-31T11:47:46;95092.97;;;18.45;47.32
9462;BME280;4769;42.660;23.262;2022-12-31T11:50:26;95094.09;;;18.94;46.92
9462;BME280;4769;42.660;23.262;2022-12-31T11:53:05;95095.94;;;19.04;46.21
9462;BME280;4769;42.660;23.262;2022-12-31T11:55:44;95092.75;;;19.27;45.65
9462;BME280;4769;42.660;23.262;2022-12-31T11:58:15;95092.16;;;19.50;45.32
9462;BME280;4769;42.660;23.262;2022-12-31T12:00:47;95087.59;;;19.55;44.83
9462;BME280;4769;42.660;23.262;2022-12-31T12:03:19;95098.19;;;19.90;44.13
9462;BME280;4769;42.660;23.262;2022-12-31T12:05:46;95100.16;;;19.70;44.11
9462;BME280;4769;42.660;23.262;2022-12-31T12:08:13;95106.34;;;19.50;44.26
9462;BME280;4769;42.660;23.262;2022-12-31T12:10:43;95114.69;;;19.29;44.94
9462;BME280;4769;42.660;23.262;2022-12-31T12:13:13;95105.91;;;19.97;43.90
9462;BME280;4769;42.660;23.262;2022-12-31T12:15:46;95109.13;;;20.04;43.35
9462;BME280;4769;42.660;23.262;2022-12-31T12:18:25;95108.41;;;19.78;43.62
9462;BME280;4769;42.660;23.262;2022-12-31T12:21:00;95109.50;;;20.41;42.75
9462;BME280;4769;42.660;23.262;2022-12-31T12:23:27;95104.34;;;20.93;41.94
9462;BME280;4769;42.660;23.262;2022-12-31T12:25:54;95099.78;;;20.93;40.93
9462;BME280;4769;42.660;23.262;2022-12-31T12:28:22;95113.38;;;20.15;42.40
9462;BME280;4769;42.660;23.262;2022-12-31T12:30:55;95109.91;;;20.14;41.97
9462;BME280;4769;42.660;23.262;2022-12-31T12:33:23;95110.31;;;20.36;42.48
9462;BME280;4769;42.660;23.262;2022-12-31T12:35:51;95103.31;;;20.40;41.99
9462;BME280;4769;42.660;23.262;2022-12-31T12:38:19;95109.59;;;20.26;42.21
9462;BME280;4769;42.660;23.262;2022-12-31T12:40:54;95103.84;;;20.81;41.27
9462;BME280;4769;42.660;23.262;2022-12-31T12:43:23;95112.56;;;20.19;42.30
9462;BME280;4769;42.660;23.262;2022-12-31T12:45:52;95095.75;;;20.52;42.03
9462;BME280;4769;42.660;23.262;2022-12-31T12:48:28;95104.03;;;20.99;41.23
9462;BME280;4769;42.660;23.262;2022-12-31T12:50:58;95098.88;;;21.36;39.95
9462;BME280;4769;42.660;23.262;2022-12-31T12:53:35;95108.94;;;21.49;39.83
9462;BME280;4769;42.660;23.262;2022-12-31T12:56:15;95096.16;;;21.65;39.79
9462;BME280;4769;42.660;23.262;2022-12-31T12:58:56;95099.13;;;21.63;39.99
9462;BME280;4769;42.660;23.262;2022-12-31T13:01:30;95103.06;;;21.76;39.23
9462;BME280;4769;42.660;23.262;2022-12-31T13:04:23;95106.19;;;22.06;38.62
9462;BME280;4769;42.660;23.262;2022-12-31T13:07:06;95106.88;;;22.17;38.31
9462;BME280;4769;42.660;23.262;2022-12-31T13:09:52;95108.25;;;22.33;38.70
9462;BME280;4769;42.660;23.262;2022-12-31T13:12:28;95103.88;;;22.60;37.88
9462;BME280;4769;42.660;23.262;2022-12-31T13:15:05;95102.75;;;22.24;38.29
9462;BME280;4769;42.660;23.262;2022-12-31T13:17:51;95107.50;;;22.51;37.90
9462;BME280;4769;42.660;23.262;2022-12-31T13:20:28;95111.94;;;22.18;38.06
9462;BME280;4769;42.660;23.262;2022-12-31T13:23:04;95115.88;;;21.84;38.80
9462;BME280;4769;42.660;23.262;2022-12-31T13:25:43;95122.03;;;20.45;41.61
9462;BME280;4769;42.660;23.262;2022-12-31T13:28:17;95131.22;;;19.41;44.76
9462;BME280;4769;42.660;23.262;2022-12-31T13:30:46;95130.16;;;19.02;45.99
9462;BME280;4769;42.660;23.262;2022-12-31T13:33:16;95138.69;;;18.64;47.05
9462;BME280;4769;42.660;23.262;2022-12-31T13:35:45;95134.56;;;18.26;47.97
9462;BME280;4769;42.660;23.262;2022-12-31T13:38:17;95132.81;;;17.90;49.00
9462;BME280;4769;42.660;23.262;2022-12-31T13:40:50;95132.41;;;17.57;50.20
9462;BME280;4769;42.660;23.262;2022-12-31T13:43:24;95132.13;;;17.22;51.36
9462;BME280;4769;42.660;23.262;2022-12-31T13:46:03;95136.31;;;16.76;52.61
9462;BME280;4769;42.660;23.262;2022-12-31T13:48:36;95140.19;;;16.37;54.12
9462;BME280;4769;42.660;23.262;2022-12-31T13:51:08;95137.34;;;16.22;54.97
9462;BME280;4769;42.660;23.262;2022-12-31T13:53:41;95149.13;;;16.05;55.85
9462;BME280;4769;42.660;23.262;2022-12-31T13:56:13;95141.09;;;16.00;56.33
9462;BME280;4769;42.660;23.262;2022-12-31T13:58:46;95150.31;;;15.92;57.07
9462;BME280;4769;42.660;23.262;2022-12-31T14:01:18;95143.94;;;15.72;57.01
9462;BME280;4769;42.660;23.262;2022-12-31T14:03:51;95145.56;;;15.56;57.80
9462;BME280;4769;42.660;23.262;2022-12-31T14:06:24;95152.22;;;15.37;58.24
9462;BME280;4769;42.660;23.262;2022-12-31T14:08:55;95144.56;;;15.24;58.77
9462;BME280;4769;42.660;23.262;2022-12-31T14:11:43;95155.94;;;15.03;59.59